sensor_id;sensor_type;location;lat;lon;timestamp;pressure;altitude;pressure_sealevel;temperature;humidity
8039;BME280;4062;49.844;8.120;2023-06-22T00:00:54;99438.66;;;19.18;60.14
8039;BME280;4062;49.844;8.120;2023-06-22T00:02:55;99444.03;;;19.18;60.00
8039;BME280;4062;49.844;8.120;2023-06-22T00:04:57;99454.63;;;19.20;60.14
8039;BME280;4062;49.844;8.120;2023-06-22T00:06:58;99459.16;;;19.19;60.09
8039;BME280;4062;49.844;8.120;2023-06-22T00:08:59;99470.81;;;19.18;59.89
8039;BME280;4062;49.844;8.120;2023-06-22T00:11:00;99470.81;;;19.18;60.16
8039;BME280;4062;49.844;8.120;2023-06-22T00:13:02;99469.00;;;19.19;59.79
8039;BME280;4062;49.844;8.120;2023-06-22T00:15:03;99465.47;;;19.18;60.15
8039;BME280;4062;49.844;8.120;2023-06-22T00:17:05;99472.53;;;19.19;59.89
8039;BME280;4062;49.844;8.120;2023-06-22T00:19:06;99473.50;;;19.18;60.00
8039;BME280;4062;49.844;8.120;2023-06-22T00:21:07;99460.97;;;19.19;60.06
8039;BME280;4062;49.844;8.120;2023-06-22T00:23:09;99454.75;;;19.18;59.88
8039;BME280;4062;49.844;8.120;2023-06-22T00:25:12;99444.03;;;19.18;60.15
8039;BME280;4062;49.844;8.120;2023-06-22T00:27:13;99436.88;;;19.19;60.01
8039;BME280;4062;49.844;8.120;2023-06-22T00:29:14;99434.19;;;19.19;59.79
8039;BME280;4062;49.844;8.120;2023-06-22T00:31:16;99453.91;;;19.18;59.95
8039;BME280;4062;49.844;8.120;2023-06-22T00:33:17;99481.53;;;19.18;59.91
8039;BME280;4062;49.844;8.120;2023-06-22T00:35:18;99490.44;;;19.19;59.94
8039;BME280;4062;49.844;8.120;2023-06-22T00:37:20;99500.28;;;19.18;59.82
8039;BME280;4062;49.844;8.120;2023-06-22T00:39:27;99521.69;;;19.18;59.75
8039;BME280;4062;49.844;8.120;2023-06-22T00:41:29;99546.69;;;19.19;60.15
8039;BME280;4062;49.844;8.120;2023-06-22T00:43:31;99574.31;;;19.19;59.93
8039;BME280;4062;49.844;8.120;2023-06-22T00:45:32;99597.56;;;19.19;59.83
8039;BME280;4062;49.844;8.120;2023-06-22T00:47:37;99604.72;;;19.18;59.97
8039;BME280;4062;49.844;8.120;2023-06-22T00:49:40;99611.81;;;19.19;60.15
8039;BME280;4062;49.844;8.120;2023-06-22T00:51:42;99605.63;;;19.19;60.14
8039;BME280;4062;49.844;8.120;2023-06-22T00:53:48;99561.03;;;19.18;60.08
8039;BME280;4062;49.844;8.120;2023-06-22T00:55:50;99493.97;;;19.19;60.02
8039;BME280;4062;49.844;8.120;2023-06-22T00:57:53;99394.03;;;19.19;59.72
8039;BME280;4062;49.844;8.120;2023-06-22T00:59:58;99336.91;;;19.18;60.03
8039;BME280;4062;49.844;8.120;2023-06-22T01:01:59;99346.75;;;19.18;60.01
8039;BME280;4062;49.844;8.120;2023-06-22T01:04:01;99364.56;;;19.19;59.83
8039;BME280;4062;49.844;8.120;2023-06-22T01:06:16;99373.53;;;19.18;60.09
8039;BME280;4062;49.844;8.120;2023-06-22T01:10:51;99379.75;;;19.18;60.20
8039;BME280;4062;49.844;8.120;2023-06-22T01:13:01;99379.75;;;19.18;59.83
8039;BME280;4062;49.844;8.120;2023-06-22T01:15:23;99379.75;;;19.18;59.98
8039;BME280;4062;49.844;8.120;2023-06-22T01:17:27;99388.66;;;19.19;60.03
8039;BME280;4062;49.844;8.120;2023-06-22T01:19:50;99396.69;;;19.19;59.81
8039;BME280;4062;49.844;8.120;2023-06-22T01:21:56;99417.25;;;19.18;60.14
8039;BME280;4062;49.844;8.120;2023-06-22T01:24:02;99433.31;;;19.18;59.83
8039;BME280;4062;49.844;8.120;2023-06-22T01:26:18;99439.56;;;19.19;59.79
8039;BME280;4062;49.844;8.120;2023-06-22T01:30:46;99430.63;;;19.18;60.22
8039;BME280;4062;49.844;8.120;2023-06-22T01:32:50;99420.81;;;19.19;59.91
8039;BME280;4062;49.844;8.120;2023-06-22T01:34:53;99418.13;;;19.19;59.94
8039;BME280;4062;49.844;8.120;2023-06-22T01:36:54;99405.69;;;19.18;60.10
8039;BME280;4062;49.844;8.120;2023-06-22T01:38:57;99403.00;;;19.18;59.98
8039;BME280;4062;49.844;8.120;2023-06-22T01:40:59;99393.16;;;19.18;59.88
8039;BME280;4062;49.844;8.120;2023-06-22T01:43:02;99394.97;;;19.18;60.05
8039;BME280;4062;49.844;8.120;2023-06-22T01:45:04;99399.38;;;19.19;60.03
8039;BME280;4062;49.844;8.120;2023-06-22T01:47:07;99397.66;;;19.18;59.85
8039;BME280;4062;49.844;8.120;2023-06-22T01:49:11;99389.63;;;19.18;59.89
8039;BME280;4062;49.844;8.120;2023-06-22T01:51:14;99392.28;;;19.18;59.92
8039;BME280;4062;49.844;8.120;2023-06-22T01:53:16;99392.28;;;19.18;59.90
8039;BME280;4062;49.844;8.120;2023-06-22T01:55:17;99402.06;;;19.19;59.91
8039;BME280;4062;49.844;8.120;2023-06-22T01:57:19;99401.19;;;19.18;60.02
8039;BME280;4062;49.844;8.120;2023-06-22T01:59:32;99397.66;;;19.18;59.97
8039;BME280;4062;49.844;8.120;2023-06-22T02:01:49;99398.50;;;19.18;60.15
8039;BME280;4062;49.844;8.120;2023-06-22T02:04:00;99395.81;;;19.18;59.86
8039;BME280;4062;49.844;8.120;2023-06-22T02:06:06;99401.19;;;19.18;59.85
8039;BME280;4062;49.844;8.120;2023-06-22T02:08:28;99395.81;;;19.18;60.22
8039;BME280;4062;49.844;8.120;2023-06-22T02:10:35;99400.31;;;19.18;59.96
8039;BME280;4062;49.844;8.120;2023-06-22T02:12:39;99411.88;;;19.18;59.86
8039;BME280;4062;49.844;8.120;2023-06-22T02:14:42;99411.88;;;19.18;59.90
8039;BME280;4062;49.844;8.120;2023-06-22T02:16:44;99411.88;;;19.18;59.84
8039;BME280;4062;49.844;8.120;2023-06-22T02:18:50;99412.78;;;19.19;60.14
8039;BME280;4062;49.844;8.120;2023-06-22T02:20:54;99419.94;;;19.18;59.91
8039;BME280;4062;49.844;8.120;2023-06-22T02:22:57;99421.75;;;19.18;60.14
8039;BME280;4062;49.844;8.120;2023-06-22T02:24:58;99425.28;;;19.18;60.07
8039;BME280;4062;49.844;8.120;2023-06-22T02:27:01;99423.47;;;19.19;60.13
8039;BME280;4062;49.844;8.120;2023-06-22T02:29:02;99412.78;;;19.19;60.15
8039;BME280;4062;49.844;8.120;2023-06-22T02:31:04;99404.72;;;19.19;60.03
8039;BME280;4062;49.844;8.120;2023-06-22T02:33:05;99393.16;;;19.18;60.04
8039;BME280;4062;49.844;8.120;2023-06-22T02:35:07;99389.63;;;19.18;60.24
8039;BME280;4062;49.844;8.120;2023-06-22T02:37:09;99383.31;;;19.19;60.09
8039;BME280;4062;49.844;8.120;2023-06-22T02:39:15;99385.09;;;19.18;60.13
8039;BME280;4062;49.844;8.120;2023-06-22T02:41:16;99368.19;;;19.18;60.20
8039;BME280;4062;49.844;8.120;2023-06-22T02:43:20;99371.72;;;19.18;60.09
8039;BME280;4062;49.844;8.120;2023-06-22T02:45:21;99352.97;;;19.18;60.07
8039;BME280;4062;49.844;8.120;2023-06-22T02:47:23;99352.13;;;19.18;60.23
8039;BME280;4062;49.844;8.120;2023-06-22T02:49:25;99342.25;;;19.18;59.96
8039;BME280;4062;49.844;8.120;2023-06-22T02:51:26;99339.56;;;19.18;59.85
8039;BME280;4062;49.844;8.120;2023-06-22T02:53:28;99343.13;;;19.19;60.08
8039;BME280;4062;49.844;8.120;2023-06-22T02:55:29;99343.13;;;19.19;59.98
8039;BME280;4062;49.844;8.120;2023-06-22T02:57:33;99333.38;;;19.18;60.16
8039;BME280;4062;49.844;8.120;2023-06-22T02:59:34;99336.06;;;19.18;59.84
8039;BME280;4062;49.844;8.120;2023-06-22T03:01:43;99331.53;;;19.18;60.00
8039;BME280;4062;49.844;8.120;2023-06-22T03:03:53;99334.22;;;19.18;59.97
8039;BME280;4062;49.844;8.120;2023-06-22T03:06:02;99337.78;;;19.19;60.14
8039;BME280;4062;49.844;8.120;2023-06-22T03:08:04;99352.13;;;19.18;60.03
8039;BME280;4062;49.844;8.120;2023-06-22T03:10:12;99348.50;;;19.19;59.94
8039;BME280;4062;49.844;8.120;2023-06-22T03:12:14;99342.25;;;19.18;59.96
8039;BME280;4062;49.844;8.120;2023-06-22T03:14:25;99341.41;;;19.18;60.09
8039;BME280;4062;49.844;8.120;2023-06-22T03:16:28;99339.56;;;19.18;59.79
8039;BME280;4062;49.844;8.120;2023-06-22T03:18:43;99332.44;;;19.19;60.22
8039;BME280;4062;49.844;8.120;2023-06-22T03:20:44;99337.78;;;19.19;60.15
8039;BME280;4062;49.844;8.120;2023-06-22T03:22:46;99328.88;;;19.18;59.97
8039;BME280;4062;49.844;8.120;2023-06-22T03:24:49;99336.91;;;19.18;59.88
8039;BME280;4062;49.844;8.120;2023-06-22T03:26:50;99331.53;;;19.18;59.91
8039;BME280;4062;49.844;8.120;2023-06-22T03:28:52;99335.09;;;19.19;60.21
8039;BME280;4062;49.844;8.120;2023-06-22T03:30:53;99328.88;;;19.18;59.94
8039;BME280;4062;49.844;8.120;2023-06-22T03:32:55;99323.50;;;19.18;60.11
8039;BME280;4062;49.844;8.120;2023-06-22T03:34:56;99320.84;;;19.18;59.98
8039;BME280;4062;49.844;8.120;2023-06-22T03:37:00;99316.34;;;19.19;59.87
8039;BME280;4062;49.844;8.120;2023-06-22T03:39:01;99319.97;;;19.18;60.02
8039;BME280;4062;49.844;8.120;2023-06-22T03:41:04;99316.34;;;19.19;59.91
8039;BME280;4062;49.844;8.120;2023-06-22T03:43:06;99318.16;;;19.18;60.14
8039;BME280;4062;49.844;8.120;2023-06-22T03:45:07;99316.34;;;19.19;60.15
8039;BME280;4062;49.844;8.120;2023-06-22T03:47:09;99321.72;;;19.19;60.09
8039;BME280;4062;49.844;8.120;2023-06-22T03:49:11;99326.19;;;19.18;59.88
8039;BME280;4062;49.844;8.120;2023-06-22T03:51:12;99327.06;;;19.19;60.10
8039;BME280;4062;49.844;8.120;2023-06-22T03:53:13;99331.53;;;19.18;60.15
8039;BME280;4062;49.844;8.120;2023-06-22T03:55:15;99336.91;;;19.18;60.15
8039;BME280;4062;49.844;8.120;2023-06-22T03:57:17;99342.25;;;19.18;60.15
8039;BME280;4062;49.844;8.120;2023-06-22T03:59:18;99332.44;;;19.19;59.91
8039;BME280;4062;49.844;8.120;2023-06-22T04:01:19;99339.56;;;19.18;59.95
8039;BME280;4062;49.844;8.120;2023-06-22T04:03:21;99336.91;;;19.18;60.04
8039;BME280;4062;49.844;8.120;2023-06-22T04:05:22;99325.34;;;19.18;59.93
8039;BME280;4062;49.844;8.120;2023-06-22T04:07:24;99334.22;;;19.18;60.17
8039;BME280;4062;49.844;8.120;2023-06-22T04:09:25;99331.53;;;19.18;60.04
8039;BME280;4062;49.844;8.120;2023-06-22T04:11:26;99336.06;;;19.18;59.92
8039;BME280;4062;49.844;8.120;2023-06-22T04:13:28;99336.91;;;19.18;60.02
8039;BME280;4062;49.844;8.120;2023-06-22T04:15:29;99340.47;;;19.19;60.10
8039;BME280;4062;49.844;8.120;2023-06-22T04:17:30;99340.47;;;19.19;59.96
8039;BME280;4062;49.844;8.120;2023-06-22T04:19:32;99343.13;;;19.19;59.90
8039;BME280;4062;49.844;8.120;2023-06-22T04:21:33;99350.28;;;19.18;59.95
8039;BME280;4062;49.844;8.120;2023-06-22T04:23:34;99346.75;;;19.18;60.15
8039;BME280;4062;49.844;8.120;2023-06-22T04:25:37;99345.81;;;19.19;60.20
8039;BME280;4062;49.844;8.120;2023-06-22T04:27:38;99347.63;;;19.18;59.98
8039;BME280;4062;49.844;8.120;2023-06-22T04:29:41;99343.13;;;19.19;60.19
8039;BME280;4062;49.844;8.120;2023-06-22T04:31:49;99336.91;;;19.18;60.16
8039;BME280;4062;49.844;8.120;2023-06-22T04:33:51;99343.13;;;19.19;59.90
8039;BME280;4062;49.844;8.120;2023-06-22T04:35:54;99344.94;;;19.18;60.27
8039;BME280;4062;49.844;8.120;2023-06-22T04:37:59;99340.47;;;19.19;60.08
8039;BME280;4062;49.844;8.120;2023-06-22T04:40:00;99336.06;;;19.18;59.88
8039;BME280;4062;49.844;8.120;2023-06-22T04:42:03;99344.94;;;19.18;60.16
8039;BME280;4062;49.844;8.120;2023-06-22T04:44:04;99336.91;;;19.18;60.20
8039;BME280;4062;49.844;8.120;2023-06-22T04:46:06;99340.47;;;19.19;60.15
8039;BME280;4062;49.844;8.120;2023-06-22T04:48:07;99345.81;;;19.19;59.84
8039;BME280;4062;49.844;8.120;2023-06-22T04:50:17;99341.41;;;19.18;60.16
8039;BME280;4062;49.844;8.120;2023-06-22T04:52:18;99336.91;;;19.18;60.16
8039;BME280;4062;49.844;8.120;2023-06-22T04:54:21;99338.72;;;19.18;59.97
8039;BME280;4062;49.844;8.120;2023-06-22T04:56:22;99331.53;;;19.18;60.14
8039;BME280;4062;49.844;8.120;2023-06-22T04:58:30;99338.63;;;19.19;59.86
8039;BME280;4062;49.844;8.120;2023-06-22T05:00:33;99334.22;;;19.18;60.20
8039;BME280;4062;49.844;8.120;2023-06-22T05:02:40;99340.47;;;19.19;60.04
8039;BME280;4062;49.844;8.120;2023-06-22T05:04:42;99335.94;;;19.19;60.08
8039;BME280;4062;49.844;8.120;2023-06-22T05:06:43;99326.19;;;19.18;60.15
8039;BME280;4062;49.844;8.120;2023-06-22T05:08:46;99328.88;;;19.18;60.07
8039;BME280;4062;49.844;8.120;2023-06-22T05:10:48;99326.19;;;19.18;60.18
8039;BME280;4062;49.844;8.120;2023-06-22T05:12:49;99321.72;;;19.19;60.07
8039;BME280;4062;49.844;8.120;2023-06-22T05:14:50;99323.41;;;19.20;60.29
8039;BME280;4062;49.844;8.120;2023-06-22T05:16:51;99321.72;;;19.19;60.06
8039;BME280;4062;49.844;8.120;2023-06-22T05:18:54;99316.34;;;19.19;60.27
8039;BME280;4062;49.844;8.120;2023-06-22T05:20:56;99311.84;;;19.19;60.29
8039;BME280;4062;49.844;8.120;2023-06-22T05:22:57;99311.84;;;19.19;60.04
8039;BME280;4062;49.844;8.120;2023-06-22T05:24:59;99306.50;;;19.19;60.18
8039;BME280;4062;49.844;8.120;2023-06-22T05:27:00;99303.81;;;19.19;60.18
8039;BME280;4062;49.844;8.120;2023-06-22T05:29:02;99303.81;;;19.19;60.14
8039;BME280;4062;49.844;8.120;2023-06-22T05:31:04;99305.66;;;19.19;60.17
8039;BME280;4062;49.844;8.120;2023-06-22T05:33:05;99307.44;;;19.18;60.03
8039;BME280;4062;49.844;8.120;2023-06-22T05:35:06;99305.53;;;19.20;59.94
8039;BME280;4062;49.844;8.120;2023-06-22T05:37:08;99309.16;;;19.19;60.01
8039;BME280;4062;49.844;8.120;2023-06-22T05:39:14;99301.13;;;19.19;59.97
8039;BME280;4062;49.844;8.120;2023-06-22T05:41:15;99306.50;;;19.19;60.02
8039;BME280;4062;49.844;8.120;2023-06-22T05:43:16;99303.81;;;19.19;60.04
8039;BME280;4062;49.844;8.120;2023-06-22T05:45:18;99302.09;;;19.18;60.18
8039;BME280;4062;49.844;8.120;2023-06-22T05:47:19;99303.81;;;19.19;60.32
8039;BME280;4062;49.844;8.120;2023-06-22T05:49:20;99301.97;;;19.20;59.95
8039;BME280;4062;49.844;8.120;2023-06-22T05:51:23;99301.97;;;19.20;59.95
8039;BME280;4062;49.844;8.120;2023-06-22T05:53:24;99304.66;;;19.20;60.33
8039;BME280;4062;49.844;8.120;2023-06-22T05:55:26;99307.34;;;19.20;60.02
8039;BME280;4062;49.844;8.120;2023-06-22T05:57:27;99298.44;;;19.19;60.12
8039;BME280;4062;49.844;8.120;2023-06-22T05:59:28;99301.97;;;19.20;60.00
8039;BME280;4062;49.844;8.120;2023-06-22T06:01:29;99302.84;;;19.20;60.00
8039;BME280;4062;49.844;8.120;2023-06-22T06:03:35;99306.38;;;19.21;60.31
8039;BME280;4062;49.844;8.120;2023-06-22T06:05:42;99314.41;;;19.21;60.32
8039;BME280;4062;49.844;8.120;2023-06-22T06:07:44;99314.41;;;19.21;60.17
8039;BME280;4062;49.844;8.120;2023-06-22T06:09:46;99309.06;;;19.21;59.88
8039;BME280;4062;49.844;8.120;2023-06-22T06:11:49;99316.16;;;19.22;59.93
8039;BME280;4062;49.844;8.120;2023-06-22T06:13:50;99309.06;;;19.21;60.29
8039;BME280;4062;49.844;8.120;2023-06-22T06:15:51;99315.28;;;19.21;60.26
8039;BME280;4062;49.844;8.120;2023-06-22T06:17:55;99318.81;;;19.22;60.09
8039;BME280;4062;49.844;8.120;2023-06-22T06:19:58;99314.41;;;19.21;60.35
8039;BME280;4062;49.844;8.120;2023-06-22T06:21:59;99319.69;;;19.23;60.32
8039;BME280;4062;49.844;8.120;2023-06-22T06:24:03;99317.03;;;19.23;60.05
8039;BME280;4062;49.844;8.120;2023-06-22T06:26:04;99309.00;;;19.23;59.89
8039;BME280;4062;49.844;8.120;2023-06-22T06:28:08;99310.72;;;19.24;60.06
8039;BME280;4062;49.844;8.120;2023-06-22T06:30:13;99304.38;;;19.25;60.30
8039;BME280;4062;49.844;8.120;2023-06-22T06:32:15;99305.25;;;19.25;60.10
8039;BME280;4062;49.844;8.120;2023-06-22T06:34:16;99295.38;;;19.26;60.33
8039;BME280;4062;49.844;8.120;2023-06-22T06:36:17;99286.41;;;19.27;60.24
8039;BME280;4062;49.844;8.120;2023-06-22T06:38:19;99292.63;;;19.27;60.05
8039;BME280;4062;49.844;8.120;2023-06-22T06:40:20;99295.31;;;19.27;60.20
8039;BME280;4062;49.844;8.120;2023-06-22T06:42:21;99306.03;;;19.27;60.21
8039;BME280;4062;49.844;8.120;2023-06-22T06:44:25;99306.88;;;19.28;60.02
8039;BME280;4062;49.844;8.120;2023-06-22T06:46:26;99313.09;;;19.28;59.99
8039;BME280;4062;49.844;8.120;2023-06-22T06:48:27;99298.84;;;19.28;60.25
8039;BME280;4062;49.844;8.120;2023-06-22T06:50:29;99299.72;;;19.28;60.01
8039;BME280;4062;49.844;8.120;2023-06-22T06:52:30;99299.72;;;19.28;59.97
8039;BME280;4062;49.844;8.120;2023-06-22T06:54:31;99298.72;;;19.29;59.95
8039;BME280;4062;49.844;8.120;2023-06-22T06:56:33;99296.81;;;19.31;59.83
8039;BME280;4062;49.844;8.120;2023-06-22T06:58:34;99294.91;;;19.33;59.93
8039;BME280;4062;49.844;8.120;2023-06-22T07:00:35;99292.91;;;19.37;59.95
8039;BME280;4062;49.844;8.120;2023-06-22T07:02:40;99288.50;;;19.36;59.63
8039;BME280;4062;49.844;8.120;2023-06-22T07:04:42;99292.06;;;19.36;59.82
8039;BME280;4062;49.844;8.120;2023-06-22T07:06:43;99297.41;;;19.36;59.56
8039;BME280;4062;49.844;8.120;2023-06-22T07:08:44;99291.97;;;19.38;59.57
8039;BME280;4062;49.844;8.120;2023-06-22T07:10:46;99283.06;;;19.37;59.52
8039;BME280;4062;49.844;8.120;2023-06-22T07:12:47;99283.06;;;19.37;59.63
8039;BME280;4062;49.844;8.120;2023-06-22T07:14:49;99283.06;;;19.37;59.68
8039;BME280;4062;49.844;8.120;2023-06-22T07:16:51;99275.88;;;19.38;59.84
8039;BME280;4062;49.844;8.120;2023-06-22T07:18:52;99276.72;;;19.38;59.87
8039;BME280;4062;49.844;8.120;2023-06-22T07:20:53;99270.41;;;19.40;59.53
8039;BME280;4062;49.844;8.120;2023-06-22T07:22:55;99273.97;;;19.40;59.70
8039;BME280;4062;49.844;8.120;2023-06-22T07:24:56;99280.28;;;19.39;59.68
8039;BME280;4062;49.844;8.120;2023-06-22T07:26:57;99278.44;;;19.40;59.85
8039;BME280;4062;49.844;8.120;2023-06-22T07:29:07;99273.03;;;19.41;59.46
8039;BME280;4062;49.844;8.120;2023-06-22T07:31:09;99277.50;;;19.41;59.58
8039;BME280;4062;49.844;8.120;2023-06-22T07:33:10;99281.06;;;19.41;59.46
8039;BME280;4062;49.844;8.120;2023-06-22T07:35:11;99277.50;;;19.41;59.51
8039;BME280;4062;49.844;8.120;2023-06-22T07:37:13;99279.22;;;19.42;59.78
8039;BME280;4062;49.844;8.120;2023-06-22T07:39:14;99268.50;;;19.42;59.73
8039;BME280;4062;49.844;8.120;2023-06-22T07:41:18;99272.16;;;19.41;59.85
8039;BME280;4062;49.844;8.120;2023-06-22T07:43:20;99256.94;;;19.41;59.54
8039;BME280;4062;49.844;8.120;2023-06-22T07:45:21;99265.94;;;19.40;59.60
8039;BME280;4062;49.844;8.120;2023-06-22T07:47:23;99276.66;;;19.40;59.88
8039;BME280;4062;49.844;8.120;2023-06-22T07:49:28;99277.50;;;19.41;59.74
8039;BME280;4062;49.844;8.120;2023-06-22T07:51:30;99281.13;;;19.40;59.69
8039;BME280;4062;49.844;8.120;2023-06-22T07:53:31;99278.44;;;19.40;59.70
8039;BME280;4062;49.844;8.120;2023-06-22T07:55:32;99279.34;;;19.40;59.87
8039;BME280;4062;49.844;8.120;2023-06-22T07:57:34;99278.44;;;19.40;59.85
8039;BME280;4062;49.844;8.120;2023-06-22T07:59:35;99266.78;;;19.41;59.76
8039;BME280;4062;49.844;8.120;2023-06-22T08:01:37;99256.06;;;19.41;59.85
8039;BME280;4062;49.844;8.120;2023-06-22T08:03:38;99248.03;;;19.41;59.69
8039;BME280;4062;49.844;8.120;2023-06-22T08:05:40;99244.50;;;19.40;59.74
8039;BME280;4062;49.844;8.120;2023-06-22T08:07:41;99247.19;;;19.40;59.83
8039;BME280;4062;49.844;8.120;2023-06-22T08:09:47;99248.13;;;19.39;60.02
8039;BME280;4062;49.844;8.120;2023-06-22T08:11:49;99240.09;;;19.39;59.63
8039;BME280;4062;49.844;8.120;2023-06-22T08:13:51;99246.31;;;19.40;59.72
8039;BME280;4062;49.844;8.120;2023-06-22T08:15:52;99232.91;;;19.40;59.61
8039;BME280;4062;49.844;8.120;2023-06-22T08:17:53;99229.38;;;19.39;59.70
8039;BME280;4062;49.844;8.120;2023-06-22T08:19:55;99232.06;;;19.39;59.90
8039;BME280;4062;49.844;8.120;2023-06-22T08:21:56;99225.81;;;19.38;60.01
8039;BME280;4062;49.844;8.120;2023-06-22T08:23:58;99231.19;;;19.38;59.57
8039;BME280;4062;49.844;8.120;2023-06-22T08:26:00;99232.06;;;19.39;59.82
8039;BME280;4062;49.844;8.120;2023-06-22T08:28:02;99227.66;;;19.38;59.68
8039;BME280;4062;49.844;8.120;2023-06-22T08:30:04;99216.94;;;19.38;59.88
8039;BME280;4062;49.844;8.120;2023-06-22T08:32:06;99215.13;;;19.38;59.69
8039;BME280;4062;49.844;8.120;2023-06-22T08:34:07;99215.13;;;19.38;59.83
8039;BME280;4062;49.844;8.120;2023-06-22T08:36:09;99208.06;;;19.37;60.06
8039;BME280;4062;49.844;8.120;2023-06-22T08:38:12;99206.22;;;19.38;59.67
8039;BME280;4062;49.844;8.120;2023-06-22T08:40:16;99213.31;;;19.39;59.89
8039;BME280;4062;49.844;8.120;2023-06-22T08:42:17;99211.59;;;19.38;59.72
8039;BME280;4062;49.844;8.120;2023-06-22T08:44:19;99206.22;;;19.38;60.14
8039;BME280;4062;49.844;8.120;2023-06-22T08:46:20;99208.91;;;19.38;60.03
8039;BME280;4062;49.844;8.120;2023-06-22T08:48:24;99210.63;;;19.39;59.66
8039;BME280;4062;49.844;8.120;2023-06-22T08:50:25;99204.41;;;19.38;59.73
8039;BME280;4062;49.844;8.120;2023-06-22T08:52:26;99207.94;;;19.39;59.76
8039;BME280;4062;49.844;8.120;2023-06-22T08:54:28;99216.00;;;19.39;59.73
8039;BME280;4062;49.844;8.120;2023-06-22T08:56:29;99216.84;;;19.40;59.99
8039;BME280;4062;49.844;8.120;2023-06-22T08:58:30;99201.63;;;19.40;59.79
8039;BME280;4062;49.844;8.120;2023-06-22T09:00:32;99201.63;;;19.40;59.53
8039;BME280;4062;49.844;8.120;2023-06-22T09:02:35;99191.88;;;19.39;59.76
8039;BME280;4062;49.844;8.120;2023-06-22T09:04:37;99202.59;;;19.39;59.81
8039;BME280;4062;49.844;8.120;2023-06-22T09:06:38;99195.41;;;19.40;59.70
8039;BME280;4062;49.844;8.120;2023-06-22T09:08:45;99190.03;;;19.40;59.73
8039;BME280;4062;49.844;8.120;2023-06-22T09:10:47;99188.31;;;19.38;59.95
8039;BME280;4062;49.844;8.120;2023-06-22T09:12:49;99191.88;;;19.39;60.08
8039;BME280;4062;49.844;8.120;2023-06-22T09:14:50;99188.31;;;19.38;59.78
8039;BME280;4062;49.844;8.120;2023-06-22T09:16:51;99185.56;;;19.40;60.12
8039;BME280;4062;49.844;8.120;2023-06-22T09:18:53;99180.28;;;19.38;59.90
8039;BME280;4062;49.844;8.120;2023-06-22T09:20:54;99178.47;;;19.39;60.19
8039;BME280;4062;49.844;8.120;2023-06-22T09:22:55;99182.13;;;19.38;60.04
8039;BME280;4062;49.844;8.120;2023-06-22T09:24:57;99188.31;;;19.38;60.13
8039;BME280;4062;49.844;8.120;2023-06-22T09:26:58;99192.00;;;19.37;60.12
8039;BME280;4062;49.844;8.120;2023-06-22T09:28:59;99183.94;;;19.37;60.03
8039;BME280;4062;49.844;8.120;2023-06-22T09:31:00;99173.25;;;19.37;60.03
8039;BME280;4062;49.844;8.120;2023-06-22T09:33:02;99172.34;;;19.37;59.96
8039;BME280;4062;49.844;8.120;2023-06-22T09:35:05;99169.56;;;19.38;60.03
8039;BME280;4062;49.844;8.120;2023-06-22T09:37:07;99171.41;;;19.38;59.76
8039;BME280;4062;49.844;8.120;2023-06-22T09:39:09;99172.25;;;19.38;60.13
8039;BME280;4062;49.844;8.120;2023-06-22T09:41:10;99170.56;;;19.37;60.08
8039;BME280;4062;49.844;8.120;2023-06-22T09:43:11;99166.88;;;19.38;59.82
8039;BME280;4062;49.844;8.120;2023-06-22T09:45:13;99163.38;;;19.38;60.09
8039;BME280;4062;49.844;8.120;2023-06-22T09:47:14;99160.69;;;19.38;59.82
8039;BME280;4062;49.844;8.120;2023-06-22T09:49:15;99139.25;;;19.38;60.00
8039;BME280;4062;49.844;8.120;2023-06-22T09:51:16;99143.66;;;19.39;59.92
8039;BME280;4062;49.844;8.120;2023-06-22T09:53:18;99145.47;;;19.38;59.75
8039;BME280;4062;49.844;8.120;2023-06-22T09:55:19;99148.06;;;19.40;59.76
8039;BME280;4062;49.844;8.120;2023-06-22T09:57:20;99147.19;;;19.40;59.80
8039;BME280;4062;49.844;8.120;2023-06-22T09:59:22;99135.63;;;19.39;59.82
8039;BME280;4062;49.844;8.120;2023-06-22T10:01:23;99140.03;;;19.40;59.75
8039;BME280;4062;49.844;8.120;2023-06-22T10:03:25;99126.63;;;19.40;59.68
8039;BME280;4062;49.844;8.120;2023-06-22T10:05:27;99118.59;;;19.40;59.73
8039;BME280;4062;49.844;8.120;2023-06-22T10:07:28;99119.44;;;19.41;60.19
8039;BME280;4062;49.844;8.120;2023-06-22T10:09:29;99114.06;;;19.41;59.89
8039;BME280;4062;49.844;8.120;2023-06-22T10:11:30;99107.88;;;19.40;59.81
8039;BME280;4062;49.844;8.120;2023-06-22T10:13:32;99106.91;;;19.41;60.03
8039;BME280;4062;49.844;8.120;2023-06-22T10:15:33;99103.38;;;19.41;60.01
8039;BME280;4062;49.844;8.120;2023-06-22T10:17:35;99094.47;;;19.40;59.93
8039;BME280;4062;49.844;8.120;2023-06-22T10:19:36;99095.31;;;19.41;59.82
8039;BME280;4062;49.844;8.120;2023-06-22T10:21:38;99086.44;;;19.40;59.68
8039;BME280;4062;49.844;8.120;2023-06-22T10:23:39;99089.97;;;19.41;59.99
8039;BME280;4062;49.844;8.120;2023-06-22T10:25:40;99084.63;;;19.41;59.67
8039;BME280;4062;49.844;8.120;2023-06-22T10:27:42;99079.25;;;19.41;59.64
8039;BME280;4062;49.844;8.120;2023-06-22T10:29:44;99088.25;;;19.40;59.96
8039;BME280;4062;49.844;8.120;2023-06-22T10:31:46;99083.75;;;19.40;60.02
8039;BME280;4062;49.844;8.120;2023-06-22T10:33:48;99074.84;;;19.40;59.95
8039;BME280;4062;49.844;8.120;2023-06-22T10:35:50;99069.50;;;19.40;60.16
8039;BME280;4062;49.844;8.120;2023-06-22T10:37:53;99064.13;;;19.40;60.02
8039;BME280;4062;49.844;8.120;2023-06-22T10:39:55;99060.50;;;19.41;60.11
8039;BME280;4062;49.844;8.120;2023-06-22T10:41:56;99061.47;;;19.40;59.75
8039;BME280;4062;49.844;8.120;2023-06-22T10:43:58;99056.97;;;19.40;59.93
8039;BME280;4062;49.844;8.120;2023-06-22T10:45:59;99056.09;;;19.40;59.88
8039;BME280;4062;49.844;8.120;2023-06-22T10:48:00;99055.25;;;19.39;59.96
8039;BME280;4062;49.844;8.120;2023-06-22T10:50:02;99044.44;;;19.41;59.88
8039;BME280;4062;49.844;8.120;2023-06-22T10:52:05;99043.59;;;19.40;59.67
8039;BME280;4062;49.844;8.120;2023-06-22T10:54:06;99046.25;;;19.40;59.72
8039;BME280;4062;49.844;8.120;2023-06-22T10:56:08;99048.94;;;19.40;60.04
8039;BME280;4062;49.844;8.120;2023-06-22T10:58:09;99044.53;;;19.39;59.75
8039;BME280;4062;49.844;8.120;2023-06-22T11:00:11;99047.09;;;19.41;59.89
8039;BME280;4062;49.844;8.120;2023-06-22T11:02:12;99039.06;;;19.41;59.80
8039;BME280;4062;49.844;8.120;2023-06-22T11:04:16;99033.72;;;19.41;59.81
8039;BME280;4062;49.844;8.120;2023-06-22T11:06:18;99034.59;;;19.41;59.98
8039;BME280;4062;49.844;8.120;2023-06-22T11:08:19;99038.22;;;19.40;59.85
8039;BME280;4062;49.844;8.120;2023-06-22T11:10:21;99036.38;;;19.41;59.92
8039;BME280;4062;49.844;8.120;2023-06-22T11:12:22;99032.88;;;19.40;59.91